首页
METAR-TAF:

METAR-TAF

机场 :

马六甲国际机场

马六甲, 马来西亚

纬度: 02-16N, 经度: 102-15E, 海拔: 11米

当前天气观测

该预报发布于24分钟前的00:00 UTC
风速5节,风向东北,在之间变化
温度 25°C
湿度 83%
气压 1011 hPa
能見度: 4000
少量云层高于2000英尺
散云层高于14000英尺
多云层高于27000英尺

METAR: WMKM 190000Z 05005KT 360V080 4000 FEW020 SCT140 BKN270 25/22 Q1011

时间: 08:24 (00:24 UTC)

预报

该预报发布于1小时和24分钟前的23:00 UTC
预报有效从19日的 00点(UTC)到 20日的 00点(UTC)
风速6节,风向东北
能见度10公里或以上
少量云层高于2800英尺

TAF: WMKM 182300Z 1900/2000 05006KT 9999 FEW028

超过4000个机场的气象观测和天气预报(METAR&TAF报告)。

可查询的气象台以黄色和红色小点在地图上表示。

将鼠标移到小点上方,可查看气象台名称。

然后点击查看天气观测和预报。

如需切换地图:点击带黑十字的绿色按钮放大地图;点击带横线的绿色按钮缩小地图;或者点击绿色箭头查看邻近地区的地图。


METAR-TAF: